createdAt,value
2019-02-09T00:00:25.742Z,985.68
2019-02-09T00:01:25.707Z,985.69
2019-02-09T00:02:25.699Z,985.71
2019-02-09T00:03:25.684Z,985.65
2019-02-09T00:04:25.673Z,985.70
2019-02-09T00:05:25.714Z,985.61
2019-02-09T00:06:25.655Z,985.65
2019-02-09T00:07:25.641Z,985.59
2019-02-09T00:08:25.632Z,985.65
2019-02-09T00:09:25.621Z,985.68
2019-02-09T00:10:25.631Z,985.65
2019-02-09T00:11:25.619Z,985.66
2019-02-09T00:12:25.586Z,985.66
2019-02-09T00:13:25.574Z,985.59
2019-02-09T00:14:25.572Z,985.64
2019-02-09T00:15:25.591Z,985.58
2019-02-09T00:16:25.543Z,985.57
2019-02-09T00:17:25.563Z,985.52
2019-02-09T00:18:25.520Z,985.51
2019-02-09T00:19:25.517Z,985.55
2019-02-09T00:20:25.521Z,985.50
2019-02-09T00:21:25.486Z,985.41
2019-02-09T00:22:25.477Z,985.55
2019-02-09T00:23:25.492Z,985.48
2019-02-09T00:24:25.456Z,985.53
2019-02-09T00:25:25.464Z,985.49
2019-02-09T00:26:25.429Z,985.51
2019-02-09T00:27:25.420Z,985.48
2019-02-09T00:28:25.410Z,985.43
2019-02-09T00:29:25.441Z,985.49
2019-02-09T00:30:25.410Z,985.55
2019-02-09T00:31:25.375Z,985.46
2019-02-09T00:32:25.365Z,985.45
2019-02-09T00:33:25.352Z,985.47
2019-02-09T00:34:25.340Z,985.41
2019-02-09T00:35:25.390Z,985.30
2019-02-09T00:36:25.319Z,985.23
2019-02-09T00:37:25.310Z,985.25
2019-02-09T00:38:25.295Z,985.17
2019-02-09T00:39:25.285Z,985.21
2019-02-09T00:40:25.306Z,985.21
2019-02-09T00:41:25.285Z,985.20
2019-02-09T00:42:25.253Z,985.10
2019-02-09T00:43:25.240Z,985.09
2019-02-09T00:44:25.233Z,985.06
2019-02-09T00:45:25.243Z,985.17
2019-02-09T00:46:25.209Z,985.13
2019-02-09T00:47:25.218Z,985.11
2019-02-09T00:48:25.184Z,985.01
2019-02-09T00:49:25.173Z,985.12
2019-02-09T00:50:25.189Z,985.04
2019-02-09T00:51:25.188Z,985.03
2019-02-09T00:52:25.144Z,984.99
2019-02-09T00:53:25.156Z,984.91
2019-02-09T00:54:25.120Z,984.91
2019-02-09T00:55:25.130Z,984.94
2019-02-09T00:56:25.096Z,984.96
2019-02-09T00:57:25.085Z,984.88
2019-02-09T00:58:25.074Z,984.98
2019-02-09T00:59:25.086Z,984.87
2019-02-09T01:00:25.088Z,984.80
2019-02-09T01:01:25.042Z,984.81
2019-02-09T01:02:25.034Z,984.78
2019-02-09T01:03:25.019Z,984.74
2019-02-09T01:04:25.008Z,984.75
2019-02-09T01:05:25.040Z,984.67
2019-02-09T01:06:24.983Z,984.54
2019-02-09T01:07:24.976Z,984.54
2019-02-09T01:08:24.963Z,984.47
2019-02-09T01:09:24.951Z,984.43
2019-02-09T01:10:24.963Z,984.50
2019-02-09T01:11:24.971Z,984.52
2019-02-09T01:12:24.947Z,984.38
2019-02-09T01:13:24.909Z,984.44
2019-02-09T01:14:24.896Z,984.46
2019-02-09T01:15:24.886Z,984.42
2019-02-09T01:16:24.895Z,984.57
2019-02-09T01:17:24.863Z,984.55
2019-02-09T01:18:24.885Z,984.49
2019-02-09T01:19:24.843Z,984.49
2019-02-09T01:20:24.830Z,984.53
2019-02-09T01:21:24.845Z,984.46
2019-02-09T01:22:24.808Z,984.37
2019-02-09T01:23:24.800Z,984.45
2019-02-09T01:24:24.806Z,984.46
2019-02-09T01:25:24.784Z,984.55
2019-02-09T01:26:24.840Z,984.51
2019-02-09T01:27:24.754Z,984.54
2019-02-09T01:28:24.740Z,984.58
2019-02-09T01:29:24.729Z,984.49
2019-02-09T01:30:24.740Z,984.38
2019-02-09T01:31:24.729Z,984.27
2019-02-09T01:32:24.700Z,984.41
2019-02-09T01:33:24.684Z,984.32
2019-02-09T01:34:24.680Z,984.30
2019-02-09T01:35:24.662Z,984.24
2019-02-09T01:36:24.711Z,984.24
2019-02-09T01:37:24.642Z,984.15
2019-02-09T01:38:24.629Z,984.08
2019-02-09T01:39:24.619Z,984.21
2019-02-09T01:40:24.607Z,984.25
2019-02-09T01:41:24.618Z,984.35
2019-02-09T01:42:24.599Z,984.26
2019-02-09T01:43:24.579Z,984.45
2019-02-09T01:44:24.562Z,984.47
2019-02-09T01:45:24.555Z,984.48
2019-02-09T01:46:24.564Z,984.44
2019-02-09T01:47:24.528Z,984.47
2019-02-09T01:48:24.540Z,984.40
2019-02-09T01:49:24.508Z,984.38
2019-02-09T01:50:24.496Z,984.52
2019-02-09T01:51:24.509Z,984.44
2019-02-09T01:52:24.473Z,984.44
2019-02-09T01:53:24.463Z,984.37
2019-02-09T01:54:24.490Z,984.47
2019-02-09T01:55:24.445Z,984.39
2019-02-09T01:56:24.453Z,984.37
2019-02-09T01:57:24.417Z,984.32
2019-02-09T01:58:24.405Z,984.22
2019-02-09T01:59:24.395Z,984.12
2019-02-09T02:00:24.409Z,984.10
2019-02-09T02:01:24.399Z,984.00
2019-02-09T02:02:24.363Z,984.07
2019-02-09T02:03:24.350Z,984.01
2019-02-09T02:04:24.341Z,983.90
2019-02-09T02:05:24.329Z,983.91
2019-02-09T02:06:24.375Z,983.94
2019-02-09T02:07:24.329Z,983.98
2019-02-09T02:08:24.307Z,983.89
2019-02-09T02:09:24.284Z,983.85
2019-02-09T02:10:24.273Z,983.92
2019-02-09T02:11:24.286Z,983.94
2019-02-09T02:12:24.276Z,983.91
2019-02-09T02:13:24.242Z,983.88
2019-02-09T02:14:24.228Z,983.98
2019-02-09T02:15:24.217Z,983.91
2019-02-09T02:16:24.229Z,983.95
2019-02-09T02:17:24.250Z,983.93
2019-02-09T02:18:24.217Z,983.95
2019-02-09T02:19:24.179Z,983.95
2019-02-09T02:20:24.162Z,984.02
2019-02-09T02:21:24.174Z,984.04
2019-02-09T02:22:24.140Z,984.10
2019-02-09T02:23:24.134Z,984.12
2019-02-09T02:24:24.155Z,984.09
2019-02-09T02:25:24.108Z,984.19
2019-02-09T02:26:24.122Z,984.07
2019-02-09T02:27:24.084Z,984.06
2019-02-09T02:28:24.078Z,984.09
2019-02-09T02:29:24.070Z,984.13
2019-02-09T02:30:24.097Z,984.11
2019-02-09T02:31:24.069Z,984.06
2019-02-09T02:32:24.028Z,984.12
2019-02-09T02:33:24.017Z,984.15
2019-02-09T02:34:24.008Z,984.17
2019-02-09T02:35:23.995Z,984.15
2019-02-09T02:36:24.041Z,984.24
2019-02-09T02:37:23.979Z,984.32
2019-02-09T02:38:23.967Z,984.35
2019-02-09T02:39:23.953Z,984.43
2019-02-09T02:40:23.940Z,984.46
2019-02-09T02:41:23.954Z,984.56
2019-02-09T02:42:23.970Z,984.61
2019-02-09T02:43:23.906Z,984.66
2019-02-09T02:44:23.913Z,984.70
2019-02-09T02:45:23.898Z,984.69
2019-02-09T02:46:23.872Z,984.71
2019-02-09T02:47:23.885Z,984.74
2019-02-09T02:48:23.881Z,984.77
2019-02-09T02:49:23.843Z,984.77
2019-02-09T02:50:23.831Z,984.80
2019-02-09T02:51:23.825Z,984.83
2019-02-09T02:52:23.836Z,984.75
2019-02-09T02:53:23.794Z,984.83
2019-02-09T02:54:23.831Z,984.71
2019-02-09T02:55:23.775Z,984.72
2019-02-09T02:56:23.764Z,984.67
2019-02-09T02:57:23.775Z,984.73
2019-02-09T02:58:23.740Z,984.83
2019-02-09T02:59:23.734Z,984.78
2019-02-09T03:00:31.903Z,984.65
2019-02-09T03:01:24.720Z,984.46
2019-02-09T03:02:23.722Z,984.30
2019-02-09T03:03:23.688Z,984.20
2019-02-09T03:04:23.678Z,984.24
2019-02-09T03:05:23.664Z,984.21
2019-02-09T03:06:23.663Z,984.17
2019-02-09T03:07:23.701Z,984.18
2019-02-09T03:08:23.633Z,984.33
2019-02-09T03:09:23.620Z,984.46
2019-02-09T03:10:23.606Z,984.44
2019-02-09T03:11:23.595Z,984.45
2019-02-09T03:12:23.613Z,984.47
2019-02-09T03:13:23.610Z,984.49
2019-02-09T03:14:23.563Z,984.47
2019-02-09T03:15:23.551Z,984.42
2019-02-09T03:16:23.549Z,984.39
2019-02-09T03:17:23.557Z,984.34
2019-02-09T03:18:23.519Z,984.41
2019-02-09T03:19:23.542Z,984.43
2019-02-09T03:20:23.504Z,984.46
2019-02-09T03:21:23.487Z,984.53
2019-02-09T03:22:23.514Z,984.60
2019-02-09T03:23:23.462Z,984.60
2019-02-09T03:24:23.451Z,984.53
2019-02-09T03:25:23.529Z,984.52
2019-02-09T03:26:23.432Z,984.58
2019-02-09T03:27:23.440Z,984.60
2019-02-09T03:28:23.405Z,984.64
2019-02-09T03:29:23.396Z,984.65
2019-02-09T03:30:23.385Z,984.74
2019-02-09T03:31:23.396Z,984.78
2019-02-09T03:32:23.384Z,984.73
2019-02-09T03:33:23.361Z,984.79
2019-02-09T03:34:23.344Z,984.84
2019-02-09T03:35:23.330Z,984.81
2019-02-09T03:36:23.322Z,984.81
2019-02-09T03:37:23.358Z,984.91
2019-02-09T03:38:23.319Z,984.82
2019-02-09T03:39:23.285Z,984.86
2019-02-09T03:40:23.274Z,984.87
2019-02-09T03:41:23.267Z,984.85
2019-02-09T03:42:23.254Z,984.87
2019-02-09T03:43:23.295Z,984.88
2019-02-09T03:44:23.235Z,984.88
2019-02-09T03:45:23.228Z,984.87
2019-02-09T03:46:30.237Z,984.84
2019-02-09T03:47:23.196Z,984.91
2019-02-09T03:48:30.243Z,984.85
2019-02-09T03:49:23.174Z,984.88
2019-02-09T03:50:23.174Z,984.90
2019-02-09T03:51:23.151Z,984.93
2019-02-09T03:52:23.144Z,984.97
2019-02-09T03:53:23.193Z,985.01
2019-02-09T03:54:23.117Z,984.95
2019-02-09T03:55:23.111Z,984.98
2019-02-09T03:56:23.136Z,985.02
2019-02-09T03:57:23.086Z,985.01
2019-02-09T03:58:23.101Z,985.04
2019-02-09T03:59:23.084Z,985.05
2019-02-09T04:00:23.055Z,984.99
2019-02-09T04:01:23.042Z,985.00
2019-02-09T04:02:23.031Z,985.01
2019-02-09T04:03:23.042Z,985.03
2019-02-09T04:04:23.029Z,985.00
2019-02-09T04:05:23.036Z,985.08
2019-02-09T04:06:22.986Z,985.16
2019-02-09T04:07:22.974Z,985.09
2019-02-09T04:08:23.033Z,984.96
2019-02-09T04:09:22.953Z,985.00
2019-02-09T04:10:22.973Z,985.02
2019-02-09T04:11:22.930Z,985.03
2019-02-09T04:12:22.930Z,985.06
2019-02-09T04:13:22.936Z,985.11
2019-02-09T04:14:22.901Z,985.18
2019-02-09T04:15:22.884Z,985.24
2019-02-09T04:16:22.909Z,985.21
2019-02-09T04:17:22.865Z,985.25
2019-02-09T04:18:22.880Z,985.28
2019-02-09T04:19:22.843Z,985.24
2019-02-09T04:20:22.830Z,985.21
2019-02-09T04:21:22.821Z,985.21
2019-02-09T04:22:22.839Z,985.29
2019-02-09T04:23:22.826Z,985.33
2019-02-09T04:24:22.815Z,985.29
2019-02-09T04:25:22.781Z,985.31
2019-02-09T04:26:22.763Z,985.32
2019-02-09T04:27:22.752Z,985.29
2019-02-09T04:28:22.781Z,985.31
2019-02-09T04:29:22.755Z,985.33
2019-02-09T04:30:22.725Z,985.24
2019-02-09T04:31:22.710Z,985.34
2019-02-09T04:32:22.698Z,985.35
2019-02-09T04:33:22.686Z,985.24
2019-02-09T04:34:22.726Z,985.23
2019-02-09T04:35:22.664Z,985.34
2019-02-09T04:36:22.652Z,985.42
2019-02-09T04:37:22.641Z,985.41
2019-02-09T04:38:22.630Z,985.51
2019-02-09T04:39:22.647Z,985.64
2019-02-09T04:40:22.639Z,985.67
2019-02-09T04:41:22.598Z,985.63
2019-02-09T04:42:22.587Z,985.65
2019-02-09T04:43:22.575Z,985.64
2019-02-09T04:44:22.585Z,985.61
2019-02-09T04:45:22.556Z,985.69
2019-02-09T04:46:22.570Z,985.69
2019-02-09T04:47:22.531Z,985.66
2019-02-09T04:48:22.521Z,985.72
2019-02-09T04:49:22.535Z,985.73
2019-02-09T04:50:22.496Z,985.79
2019-02-09T04:51:22.487Z,985.85
2019-02-09T04:52:22.554Z,985.84
2019-02-09T04:53:22.465Z,985.92
2019-02-09T04:54:22.476Z,985.87
2019-02-09T04:55:22.446Z,985.88
2019-02-09T04:56:22.437Z,985.94
2019-02-09T04:57:22.422Z,985.92
2019-02-09T04:58:22.448Z,986.02
2019-02-09T04:59:22.422Z,985.98
2019-02-09T05:00:22.388Z,986.04
2019-02-09T05:01:22.375Z,986.13
2019-02-09T05:02:22.366Z,986.09
2019-02-09T05:03:22.357Z,986.12
2019-02-09T05:04:22.397Z,986.07
2019-02-09T05:05:22.334Z,986.11
2019-02-09T05:06:22.321Z,986.06
2019-02-09T05:07:22.307Z,986.10
2019-02-09T05:08:22.297Z,986.20
2019-02-09T05:09:22.311Z,986.24
2019-02-09T05:10:22.329Z,986.27
2019-02-09T05:11:22.263Z,986.22
2019-02-09T05:12:22.254Z,986.25
2019-02-09T05:13:22.241Z,986.29
2019-02-09T05:14:22.258Z,986.32
2019-02-09T05:15:22.223Z,986.33
2019-02-09T05:16:22.233Z,986.32
2019-02-09T05:17:22.196Z,986.32
2019-02-09T05:18:22.186Z,986.30
2019-02-09T05:19:22.200Z,986.41
2019-02-09T05:20:22.188Z,986.35
2019-02-09T05:21:22.152Z,986.31
2019-02-09T05:22:22.153Z,986.28
2019-02-09T05:23:22.130Z,986.28
2019-02-09T05:24:22.121Z,986.34
2019-02-09T05:25:22.135Z,986.29
2019-02-09T05:26:22.102Z,986.28
2019-02-09T05:27:22.087Z,986.31
2019-02-09T05:28:22.099Z,986.28
2019-02-09T05:29:22.065Z,986.21
2019-02-09T05:30:22.078Z,986.24
2019-02-09T05:31:23.465Z,986.33
2019-02-09T05:32:22.040Z,986.29
2019-02-09T05:33:22.022Z,986.37
2019-02-09T05:34:22.039Z,986.33
2019-02-09T05:35:22.023Z,986.30
2019-02-09T05:36:21.990Z,986.34
2019-02-09T05:37:21.979Z,986.29
2019-02-09T05:38:21.965Z,986.34
2019-02-09T05:39:21.956Z,986.31
2019-02-09T05:40:22.000Z,986.33
2019-02-09T05:41:21.931Z,986.32
2019-02-09T05:42:21.929Z,986.28
2019-02-09T05:43:21.912Z,986.33
2019-02-09T05:44:21.903Z,986.33
2019-02-09T05:45:21.910Z,986.33
2019-02-09T05:46:21.885Z,986.44
2019-02-09T05:47:21.902Z,986.47
2019-02-09T05:48:21.855Z,986.54
2019-02-09T05:49:21.849Z,986.47
2019-02-09T05:50:21.861Z,986.51
2019-02-09T05:51:21.825Z,986.58
2019-02-09T05:52:21.809Z,986.53
2019-02-09T05:53:21.826Z,986.55
2019-02-09T05:54:21.789Z,986.61
2019-02-09T05:55:21.799Z,986.58
2019-02-09T05:56:21.765Z,986.55
2019-02-09T05:57:21.760Z,986.56
2019-02-09T05:58:21.743Z,986.58
2019-02-09T05:59:21.747Z,986.56
2019-02-09T06:00:21.749Z,986.54
2019-02-09T06:01:21.710Z,986.57
2019-02-09T06:02:21.697Z,986.57
2019-02-09T06:03:21.687Z,986.60
2019-02-09T06:04:21.687Z,986.58
2019-02-09T06:05:21.710Z,986.60
2019-02-09T06:06:21.653Z,986.65
2019-02-09T06:07:21.642Z,986.59
2019-02-09T06:08:21.634Z,986.62
2019-02-09T06:09:21.619Z,986.56
2019-02-09T06:10:21.631Z,986.61
2019-02-09T06:11:21.621Z,986.59
2019-02-09T06:12:21.587Z,986.62
2019-02-09T06:13:21.576Z,986.65
2019-02-09T06:14:21.564Z,986.65
2019-02-09T06:15:21.554Z,986.60
2019-02-09T06:16:21.575Z,986.66
2019-02-09T06:17:21.555Z,986.77
2019-02-09T06:18:21.520Z,986.78
2019-02-09T06:19:21.509Z,986.88
2019-02-09T06:20:21.498Z,986.82
2019-02-09T06:21:21.510Z,986.73
2019-02-09T06:22:21.475Z,986.89
2019-02-09T06:23:21.495Z,986.89
2019-02-09T06:24:21.452Z,986.85
2019-02-09T06:25:21.443Z,986.85
2019-02-09T06:26:21.455Z,986.83
2019-02-09T06:27:21.421Z,986.88
2019-02-09T06:28:21.414Z,986.82
2019-02-09T06:29:21.412Z,986.79
2019-02-09T06:30:21.386Z,986.85
2019-02-09T06:31:21.402Z,986.85
2019-02-09T06:32:21.365Z,986.92
2019-02-09T06:33:21.354Z,986.90
2019-02-09T06:34:21.342Z,986.74
2019-02-09T06:35:21.341Z,986.94
2019-02-09T06:36:21.374Z,986.88
2019-02-09T06:37:21.309Z,986.95
2019-02-09T06:38:21.299Z,986.94
2019-02-09T06:39:21.289Z,987.06
2019-02-09T06:40:21.279Z,987.01
2019-02-09T06:41:21.291Z,987.02
2019-02-09T06:42:21.292Z,987.04
2019-02-09T06:43:21.241Z,987.09
2019-02-09T06:44:21.234Z,987.09
2019-02-09T06:45:21.220Z,987.09
2019-02-09T06:46:21.236Z,987.08
2019-02-09T06:47:21.201Z,987.09
2019-02-09T06:48:21.203Z,987.12
2019-02-09T06:49:21.176Z,987.21
2019-02-09T06:50:21.163Z,987.12
2019-02-09T06:51:21.180Z,987.18
2019-02-09T06:52:21.143Z,987.21
2019-02-09T06:53:21.133Z,987.11
2019-02-09T06:54:21.145Z,987.24
2019-02-09T06:55:21.108Z,987.18
2019-02-09T06:56:21.121Z,987.27
2019-02-09T06:57:21.087Z,987.33
2019-02-09T06:58:21.075Z,987.37
2019-02-09T06:59:21.068Z,987.36
2019-02-09T07:00:21.073Z,987.41
2019-02-09T07:01:21.068Z,987.48
2019-02-09T07:02:21.033Z,987.48
2019-02-09T07:03:21.020Z,987.55
2019-02-09T07:04:21.008Z,987.53
2019-02-09T07:05:21.000Z,987.50
2019-02-09T07:06:21.050Z,987.57
2019-02-09T07:07:20.975Z,987.57
2019-02-09T07:08:20.966Z,987.53
2019-02-09T07:09:20.955Z,987.58
2019-02-09T07:10:20.943Z,987.57
2019-02-09T07:11:20.932Z,987.60
2019-02-09T07:12:20.968Z,987.58
2019-02-09T07:13:20.911Z,987.64
2019-02-09T07:14:20.902Z,987.62
2019-02-09T07:15:20.892Z,987.67
2019-02-09T07:16:20.879Z,987.69
2019-02-09T07:17:20.888Z,987.71
2019-02-09T07:18:20.880Z,987.69
2019-02-09T07:19:20.844Z,987.76
2019-02-09T07:20:20.834Z,987.75
2019-02-09T07:21:20.824Z,987.77
2019-02-09T07:22:20.834Z,987.70
2019-02-09T07:23:20.799Z,987.71
2019-02-09T07:24:20.806Z,987.73
2019-02-09T07:25:20.777Z,987.73
2019-02-09T07:26:20.767Z,987.75
2019-02-09T07:27:20.776Z,987.77
2019-02-09T07:28:20.745Z,987.78
2019-02-09T07:29:20.733Z,987.78
2019-02-09T07:30:20.733Z,987.77
2019-02-09T07:31:20.713Z,987.83
2019-02-09T07:32:20.721Z,987.84
2019-02-09T07:33:20.694Z,987.91
2019-02-09T07:34:20.678Z,987.90
2019-02-09T07:35:20.668Z,987.90
2019-02-09T07:36:20.677Z,987.95
2019-02-09T07:37:20.669Z,987.97
2019-02-09T07:38:20.635Z,988.02
2019-02-09T07:39:20.621Z,988.01
2019-02-09T07:40:20.610Z,988.03
2019-02-09T07:41:20.606Z,988.04
2019-02-09T07:42:20.641Z,988.03
2019-02-09T07:43:20.581Z,988.09
2019-02-09T07:44:20.567Z,988.06
2019-02-09T07:45:20.556Z,988.14
2019-02-09T07:46:20.543Z,988.18
2019-02-09T07:47:20.558Z,988.16
2019-02-09T07:48:20.558Z,988.20
2019-02-09T07:49:20.514Z,988.23
2019-02-09T07:50:20.501Z,988.23
2019-02-09T07:51:20.488Z,988.23
2019-02-09T07:52:20.501Z,988.24
2019-02-09T07:53:20.468Z,988.29
2019-02-09T07:54:20.482Z,988.27
2019-02-09T07:55:20.445Z,988.22
2019-02-09T07:56:20.432Z,988.24
2019-02-09T07:57:20.449Z,988.25
2019-02-09T07:58:20.411Z,988.21
2019-02-09T07:59:20.399Z,988.27
2019-02-09T08:00:20.406Z,988.32
2019-02-09T08:01:20.378Z,988.31
2019-02-09T08:02:20.392Z,988.34
2019-02-09T08:03:20.360Z,988.40
2019-02-09T08:04:20.344Z,988.50
2019-02-09T08:05:20.333Z,988.46
2019-02-09T08:06:20.354Z,988.41
2019-02-09T08:07:20.337Z,988.45
2019-02-09T08:08:20.329Z,988.42
2019-02-09T08:09:20.290Z,988.52
2019-02-09T08:10:20.282Z,988.51
2019-02-09T08:11:20.270Z,988.59
2019-02-09T08:12:20.272Z,988.53
2019-02-09T08:13:20.266Z,988.67
2019-02-09T08:14:20.233Z,988.59
2019-02-09T08:15:20.222Z,988.61
2019-02-09T08:16:20.211Z,988.63
2019-02-09T08:17:20.202Z,988.60
2019-02-09T08:18:20.246Z,988.59
2019-02-09T08:19:20.177Z,988.68
2019-02-09T08:20:20.172Z,988.78
2019-02-09T08:21:20.159Z,988.64
2019-02-09T08:22:20.144Z,988.62
2019-02-09T08:23:20.158Z,988.63
2019-02-09T08:24:20.145Z,988.68
2019-02-09T08:25:20.112Z,988.71
2019-02-09T08:26:20.102Z,988.76
2019-02-09T08:27:23.572Z,988.78
2019-02-09T08:28:20.101Z,988.72
2019-02-09T08:29:20.068Z,988.78
2019-02-09T08:30:20.058Z,988.78
2019-02-09T08:31:20.069Z,988.87
2019-02-09T08:32:20.032Z,988.85
2019-02-09T08:33:20.046Z,988.82
2019-02-09T08:34:20.013Z,988.85
2019-02-09T08:35:20.002Z,988.84
2019-02-09T08:36:19.991Z,988.90
2019-02-09T08:37:20.007Z,988.90
2019-02-09T08:38:19.993Z,988.88
2019-02-09T08:39:19.955Z,988.88
2019-02-09T08:40:19.945Z,988.90
2019-02-09T08:41:19.937Z,988.89
2019-02-09T08:42:19.927Z,988.96
2019-02-09T08:43:19.960Z,989.02
2019-02-09T08:44:19.900Z,989.08
2019-02-09T08:45:19.889Z,989.05
2019-02-09T08:46:19.880Z,989.07
2019-02-09T08:47:19.870Z,989.08
2019-02-09T08:48:19.883Z,989.06
2019-02-09T08:49:19.861Z,988.96
2019-02-09T08:50:19.835Z,989.08
2019-02-09T08:51:19.824Z,989.10
2019-02-09T08:52:19.815Z,989.11
2019-02-09T08:53:19.827Z,989.06
2019-02-09T08:54:19.793Z,989.11
2019-02-09T08:55:19.827Z,989.14
2019-02-09T08:56:19.768Z,989.09
2019-02-09T08:57:19.756Z,989.06
2019-02-09T08:58:19.770Z,989.04
2019-02-09T08:59:19.734Z,989.11
2019-02-09T09:00:19.727Z,989.08
2019-02-09T09:01:19.729Z,989.12
2019-02-09T09:02:20.851Z,989.07
2019-02-09T09:03:19.713Z,989.11
2019-02-09T09:04:19.702Z,989.08
2019-02-09T09:05:19.667Z,989.08
2019-02-09T09:06:19.657Z,989.18
2019-02-09T09:07:19.667Z,989.04
2019-02-09T09:08:19.637Z,989.12
2019-02-09T09:09:19.656Z,989.07
2019-02-09T09:10:19.611Z,989.11
2019-02-09T09:11:19.602Z,989.05
2019-02-09T09:12:19.592Z,989.05
2019-02-09T09:13:19.608Z,989.05
2019-02-09T09:14:19.591Z,989.09
2019-02-09T09:15:19.560Z,989.13
2019-02-09T09:16:19.547Z,989.07
2019-02-09T09:17:19.534Z,989.12
2019-02-09T09:18:19.523Z,989.10
2019-02-09T09:19:19.550Z,989.12
2019-02-09T09:20:19.504Z,989.14
2019-02-09T09:21:19.489Z,989.20
2019-02-09T09:22:19.479Z,989.17
2019-02-09T09:23:19.469Z,989.21
2019-02-09T09:24:19.484Z,989.19
2019-02-09T09:25:19.473Z,989.15
2019-02-09T09:26:19.435Z,989.13
2019-02-09T09:27:19.427Z,989.20
2019-02-09T09:28:19.412Z,989.25
2019-02-09T09:29:19.424Z,989.24
2019-02-09T09:30:19.388Z,989.22
2019-02-09T09:31:19.392Z,989.23
2019-02-09T09:32:19.367Z,989.31
2019-02-09T09:33:19.355Z,989.24
2019-02-09T09:34:19.368Z,989.27
2019-02-09T09:35:19.336Z,989.32
2019-02-09T09:36:19.322Z,989.27
2019-02-09T09:37:19.337Z,989.21
2019-02-09T09:38:19.299Z,989.27
2019-02-09T09:39:19.315Z,989.30
2019-02-09T09:40:19.279Z,989.38
2019-02-09T09:41:19.268Z,989.34
2019-02-09T09:42:19.291Z,989.32
2019-02-09T09:43:19.267Z,989.26
2019-02-09T09:44:19.266Z,989.23
2019-02-09T09:45:19.228Z,989.31
2019-02-09T09:46:19.216Z,989.34
2019-02-09T09:47:19.200Z,989.25
2019-02-09T09:48:19.187Z,989.28
2019-02-09T09:49:19.189Z,989.29
2019-02-09T09:50:19.190Z,989.36
2019-02-09T09:51:19.154Z,989.45
2019-02-09T09:52:19.144Z,989.44
2019-02-09T09:53:19.135Z,989.49
2019-02-09T09:54:19.143Z,989.49
2019-02-09T09:55:19.131Z,989.53
2019-02-09T09:56:19.101Z,989.56
2019-02-09T09:57:19.090Z,989.64
2019-02-09T09:58:19.077Z,989.63
2019-02-09T09:59:19.075Z,989.66
2019-02-09T10:00:19.078Z,989.60
2019-02-09T10:01:19.043Z,989.57
2019-02-09T10:02:19.034Z,989.55
2019-02-09T10:03:19.024Z,989.50
2019-02-09T10:04:19.009Z,989.57
2019-02-09T10:05:22.123Z,989.52
2019-02-09T10:06:18.986Z,989.44
2019-02-09T10:07:18.975Z,989.52
2019-02-09T10:08:18.965Z,989.47
2019-02-09T10:09:18.954Z,989.55
2019-02-09T10:10:18.967Z,989.56
2019-02-09T10:11:18.959Z,989.64
2019-02-09T10:12:18.921Z,989.57
2019-02-09T10:13:18.908Z,989.61
2019-02-09T10:14:18.897Z,989.58
2019-02-09T10:15:18.908Z,989.55
2019-02-09T10:16:18.875Z,989.51
2019-02-09T10:17:18.887Z,989.49
2019-02-09T10:18:18.857Z,989.38
2019-02-09T10:19:18.839Z,989.44
2019-02-09T10:20:19.597Z,989.51
2019-02-09T10:21:18.822Z,989.56
2019-02-09T10:22:18.809Z,989.53
2019-02-09T10:23:18.823Z,989.54
2019-02-09T10:24:18.786Z,989.57
2019-02-09T10:25:18.798Z,989.49
2019-02-09T10:26:18.764Z,989.61
2019-02-09T10:27:18.752Z,989.55
2019-02-09T10:28:18.741Z,989.60
2019-02-09T10:29:18.751Z,989.66
2019-02-09T10:30:18.744Z,989.62
2019-02-09T10:31:18.708Z,989.70
2019-02-09T10:32:18.695Z,989.70
2019-02-09T10:33:18.684Z,989.68
2019-02-09T10:34:18.674Z,989.62
2019-02-09T10:35:18.711Z,989.64
2019-02-09T10:36:18.651Z,989.74
2019-02-09T10:37:18.645Z,989.69
2019-02-09T10:38:18.627Z,989.68
2019-02-09T10:39:18.620Z,989.61
2019-02-09T10:40:18.635Z,989.65
2019-02-09T10:41:18.626Z,989.71
2019-02-09T10:42:18.586Z,989.67
2019-02-09T10:43:18.573Z,989.61
2019-02-09T10:44:18.561Z,989.71
2019-02-09T10:45:18.571Z,989.79
2019-02-09T10:46:18.541Z,989.85
2019-02-09T10:47:18.561Z,989.74
2019-02-09T10:48:18.519Z,989.79
2019-02-09T10:49:18.508Z,989.84
2019-02-09T10:50:23.586Z,989.82
2019-02-09T10:51:18.483Z,989.86
2019-02-09T10:52:19.162Z,989.85
2019-02-09T10:53:18.497Z,989.90
2019-02-09T10:54:18.453Z,989.81
2019-02-09T10:55:18.464Z,989.81
2019-02-09T10:56:18.429Z,989.91
2019-02-09T10:57:18.415Z,989.79
2019-02-09T10:58:18.406Z,989.82
2019-02-09T10:59:18.422Z,989.83
2019-02-09T11:00:25.437Z,989.87
2019-02-09T11:01:25.400Z,989.92
2019-02-09T11:02:18.360Z,989.77
2019-02-09T11:03:18.356Z,989.87
2019-02-09T11:04:25.368Z,989.82
2019-02-09T11:05:18.355Z,989.80
2019-02-09T11:06:18.348Z,989.79
2019-02-09T11:07:18.304Z,989.87
2019-02-09T11:08:18.298Z,989.82
2019-02-09T11:09:18.304Z,989.85
2019-02-09T11:10:18.296Z,989.81
2019-02-09T11:11:18.284Z,989.75
2019-02-09T11:12:18.255Z,989.83
2019-02-09T11:13:18.239Z,989.78
2019-02-09T11:14:18.252Z,989.83
2019-02-09T11:15:18.217Z,989.70
2019-02-09T11:16:18.235Z,989.68
2019-02-09T11:17:18.193Z,989.65
2019-02-09T11:18:18.183Z,989.66
2019-02-09T11:19:18.172Z,989.70
2019-02-09T11:20:18.177Z,989.72
2019-02-09T11:21:18.173Z,989.69
2019-02-09T11:22:18.137Z,989.67
2019-02-09T11:23:18.130Z,989.69
2019-02-09T11:24:18.116Z,989.71
2019-02-09T11:25:18.103Z,989.63
2019-02-09T11:26:18.143Z,989.67
2019-02-09T11:27:18.080Z,989.68
2019-02-09T11:28:18.071Z,989.59
2019-02-09T11:29:18.058Z,989.70
2019-02-09T11:30:18.050Z,989.75
2019-02-09T11:31:18.061Z,989.62
2019-02-09T11:32:18.060Z,989.65
2019-02-09T11:33:18.013Z,989.58
2019-02-09T11:34:18.003Z,989.57
2019-02-09T11:35:17.991Z,989.51
2019-02-09T11:36:18.007Z,989.56
2019-02-09T11:37:17.975Z,989.48
2019-02-09T11:38:17.983Z,989.57
2019-02-09T11:39:17.950Z,989.55
2019-02-09T11:40:17.936Z,989.58
2019-02-09T11:41:17.949Z,989.56
2019-02-09T11:42:17.915Z,989.65
2019-02-09T11:43:17.903Z,989.60
2019-02-09T11:44:17.911Z,989.63
2019-02-09T11:45:17.885Z,989.53
2019-02-09T11:46:17.892Z,989.57
2019-02-09T11:47:17.859Z,989.59
2019-02-09T11:48:17.848Z,989.62
2019-02-09T11:49:17.841Z,989.62
2019-02-09T11:50:17.839Z,989.62
2019-02-09T11:51:18.613Z,989.66
2019-02-09T11:52:17.804Z,989.71
2019-02-09T11:53:17.790Z,989.70
2019-02-09T11:54:17.778Z,989.66
2019-02-09T11:55:17.767Z,989.69
2019-02-09T11:56:17.808Z,989.71
2019-02-09T11:57:17.768Z,989.60
2019-02-09T11:58:17.737Z,989.59
2019-02-09T11:59:17.726Z,989.62
2019-02-09T12:00:17.711Z,989.67
2019-02-09T12:01:17.725Z,989.55
2019-02-09T12:02:17.705Z,989.51
2019-02-09T12:03:18.285Z,989.47
2019-02-09T12:04:17.669Z,989.52
2019-02-09T12:05:17.659Z,989.49
2019-02-09T12:06:17.669Z,989.50
2019-02-09T12:07:17.636Z,989.59
2019-02-09T12:08:17.651Z,989.45
2019-02-09T12:09:17.618Z,989.51
2019-02-09T12:10:17.605Z,989.56
2019-02-09T12:11:17.625Z,989.57
2019-02-09T12:12:17.579Z,989.41
2019-02-09T12:13:17.568Z,989.39
2019-02-09T12:14:17.581Z,989.41
2019-02-09T12:15:17.545Z,989.34
2019-02-09T12:16:17.559Z,989.46
2019-02-09T12:17:17.530Z,989.41
2019-02-09T12:18:17.514Z,989.33
2019-02-09T12:19:17.505Z,989.35
2019-02-09T12:20:17.511Z,989.43
2019-02-09T12:21:17.506Z,989.36
2019-02-09T12:22:17.470Z,989.37
2019-02-09T12:23:17.457Z,989.39
2019-02-09T12:24:17.445Z,989.43
2019-02-09T12:25:17.435Z,989.39
2019-02-09T12:26:17.463Z,989.46
2019-02-09T12:27:17.415Z,989.53
2019-02-09T12:28:17.403Z,989.50